createdAt,value
2022-08-31T00:02:43.604Z,54.67
2022-08-31T00:05:10.958Z,55.13
2022-08-31T00:07:40.290Z,55.27
2022-08-31T00:10:14.805Z,55.36
2022-08-31T00:12:48.397Z,55.40
2022-08-31T00:15:18.549Z,55.87
2022-08-31T00:17:48.987Z,56.61
2022-08-31T00:20:18.285Z,56.75
2022-08-31T00:23:08.861Z,57.39
2022-08-31T00:25:36.889Z,57.66
2022-08-31T00:28:07.549Z,58.20
2022-08-31T00:30:34.726Z,58.97
2022-08-31T00:33:02.537Z,59.00
2022-08-31T00:35:33.213Z,59.20
2022-08-31T00:38:00.579Z,59.47
2022-08-31T00:40:27.815Z,59.51
2022-08-31T00:42:57.965Z,59.86
2022-08-31T00:45:27.561Z,60.48
2022-08-31T00:47:58.290Z,60.73
2022-08-31T00:50:25.339Z,61.23
2022-08-31T00:52:57.978Z,61.65
2022-08-31T00:55:33.133Z,62.10
2022-08-31T00:58:12.865Z,62.62
2022-08-31T01:00:40.647Z,62.74
2022-08-31T01:03:08.301Z,63.11
2022-08-31T01:05:36.398Z,63.50
2022-08-31T01:08:06.803Z,63.22
2022-08-31T01:10:58.567Z,63.59
2022-08-31T01:13:25.743Z,63.76
2022-08-31T01:15:57.520Z,64.27
2022-08-31T01:18:24.791Z,64.96
2022-08-31T01:21:22.523Z,65.15
2022-08-31T01:23:49.481Z,65.55
2022-08-31T01:26:19.911Z,65.40
2022-08-31T01:28:47.272Z,65.68
2022-08-31T01:31:24.895Z,65.67
2022-08-31T01:33:52.030Z,66.06
2022-08-31T01:36:19.798Z,65.92
2022-08-31T01:38:47.053Z,66.45
2022-08-31T01:41:21.427Z,67.21
2022-08-31T01:43:55.272Z,67.09
2022-08-31T01:46:35.013Z,67.10
2022-08-31T01:49:17.851Z,67.67
2022-08-31T01:51:52.363Z,67.78
2022-08-31T01:54:22.477Z,67.71
2022-08-31T01:57:03.878Z,68.11
2022-08-31T01:59:50.868Z,67.69
2022-08-31T02:02:37.996Z,67.27
2022-08-31T02:05:05.813Z,68.05
2022-08-31T02:07:33.048Z,68.52
2022-08-31T02:10:00.002Z,68.08
2022-08-31T02:12:27.149Z,68.43
2022-08-31T02:14:54.150Z,68.71
2022-08-31T02:21:45.134Z,69.01
2022-08-31T02:24:12.546Z,69.30
2022-08-31T02:26:51.665Z,69.20
2022-08-31T02:29:21.260Z,69.11
2022-08-31T02:32:19.546Z,69.43
2022-08-31T02:36:06.535Z,69.49
2022-08-31T02:38:35.230Z,69.63
2022-08-31T02:41:02.775Z,69.80
2022-08-31T02:43:30.837Z,69.64
2022-08-31T02:50:39.779Z,69.82
2022-08-31T02:53:21.743Z,69.76
2022-08-31T02:56:12.346Z,69.68
2022-08-31T02:58:39.802Z,70.15
2022-08-31T03:01:07.251Z,71.09
2022-08-31T03:03:34.920Z,71.15
2022-08-31T03:06:02.439Z,71.08
2022-08-31T03:08:29.598Z,70.55
2022-08-31T03:10:58.600Z,70.68
2022-08-31T03:13:25.529Z,71.33
2022-08-31T03:15:52.509Z,71.05
2022-08-31T03:18:19.409Z,71.70
2022-08-31T03:20:50.843Z,71.61
2022-08-31T03:23:20.572Z,71.52
2022-08-31T03:25:51.826Z,71.98
2022-08-31T03:28:18.766Z,72.05
2022-08-31T03:31:08.215Z,72.02
2022-08-31T03:33:35.619Z,72.74
2022-08-31T03:36:03.918Z,72.88
2022-08-31T03:38:31.004Z,72.71
2022-08-31T03:40:58.299Z,71.91
2022-08-31T03:43:25.379Z,73.14
2022-08-31T03:45:53.167Z,72.86
2022-08-31T03:48:20.271Z,72.68
2022-08-31T03:50:47.664Z,72.59
2022-08-31T03:53:23.055Z,72.57
2022-08-31T03:55:54.026Z,72.67
2022-08-31T03:58:20.975Z,72.71
2022-08-31T04:00:47.924Z,72.92
2022-08-31T04:03:36.242Z,73.31
2022-08-31T04:06:22.485Z,73.32
2022-08-31T04:09:08.040Z,73.52
2022-08-31T04:12:13.717Z,73.47
2022-08-31T04:15:15.242Z,73.44
2022-08-31T04:18:09.328Z,73.61
2022-08-31T04:20:54.009Z,73.70
2022-08-31T04:23:21.425Z,73.75
2022-08-31T04:25:52.562Z,73.78
2022-08-31T04:28:25.729Z,73.97
2022-08-31T04:31:10.239Z,73.70
2022-08-31T04:33:40.803Z,74.11
2022-08-31T04:36:12.169Z,74.39
2022-08-31T04:38:44.967Z,74.12
2022-08-31T04:41:15.549Z,74.41
2022-08-31T04:43:48.328Z,74.28
2022-08-31T04:46:25.833Z,74.75
2022-08-31T04:48:55.157Z,74.91
2022-08-31T04:51:26.008Z,74.96
2022-08-31T04:54:37.718Z,75.00
2022-08-31T04:57:44.050Z,74.54
2022-08-31T05:00:27.477Z,74.83
2022-08-31T05:03:13.267Z,75.03
2022-08-31T05:05:41.410Z,74.83
2022-08-31T05:08:09.123Z,74.61
2022-08-31T05:10:35.944Z,74.44
2022-08-31T05:13:34.838Z,75.38
2022-08-31T05:16:13.214Z,75.55
2022-08-31T05:18:41.773Z,75.13
2022-08-31T05:21:17.624Z,74.69
2022-08-31T05:39:31.034Z,73.86
2022-08-31T05:45:05.691Z,73.60
2022-08-31T05:47:33.700Z,73.57
2022-08-31T05:50:08.291Z,73.52
2022-08-31T05:53:21.792Z,73.39
2022-08-31T06:00:12.819Z,73.48
2022-08-31T06:07:02.321Z,72.74
2022-08-31T06:09:49.654Z,72.75
2022-08-31T06:13:23.392Z,72.47
2022-08-31T06:19:37.564Z,72.71
2022-08-31T06:22:15.545Z,72.87
2022-08-31T06:24:43.241Z,72.04
2022-08-31T06:27:10.513Z,71.32
2022-08-31T06:29:42.249Z,71.74
2022-08-31T06:32:15.119Z,71.14
2022-08-31T06:35:21.610Z,70.94
2022-08-31T06:38:25.089Z,70.56
2022-08-31T06:41:43.010Z,70.61
2022-08-31T06:49:01.150Z,70.41
2022-08-31T06:51:29.538Z,70.85
2022-08-31T06:54:04.369Z,70.59
2022-08-31T06:57:03.138Z,71.17
2022-08-31T06:59:52.597Z,71.18
2022-08-31T07:02:36.097Z,70.73
2022-08-31T07:05:07.484Z,70.69
2022-08-31T07:07:34.924Z,70.49
2022-08-31T07:10:02.101Z,70.51
2022-08-31T07:12:32.603Z,70.55
2022-08-31T07:14:59.750Z,70.11
2022-08-31T07:17:28.261Z,70.17
2022-08-31T07:19:55.405Z,69.69
2022-08-31T07:22:56.974Z,69.50
2022-08-31T07:25:48.926Z,69.58
2022-08-31T07:28:25.369Z,69.84
2022-08-31T07:30:56.277Z,69.19
2022-08-31T07:33:28.557Z,68.76
2022-08-31T07:36:24.930Z,68.90
2022-08-31T07:39:23.291Z,69.12
2022-08-31T07:45:40.877Z,68.93
2022-08-31T07:48:10.583Z,68.17
2022-08-31T07:50:57.397Z,67.80
2022-08-31T07:57:03.689Z,67.29
2022-08-31T07:59:33.393Z,67.85
2022-08-31T08:02:08.000Z,67.04
2022-08-31T08:04:44.329Z,66.73
2022-08-31T08:07:37.353Z,66.79
2022-08-31T08:11:10.846Z,66.71
2022-08-31T08:17:20.128Z,66.34
2022-08-31T08:22:30.617Z,65.49
2022-08-31T08:25:25.722Z,65.08
2022-08-31T08:31:14.893Z,65.07
2022-08-31T08:38:57.654Z,64.88
2022-08-31T08:41:45.860Z,64.93
2022-08-31T08:44:17.832Z,64.72
2022-08-31T08:46:52.996Z,64.63
2022-08-31T08:49:38.406Z,64.53
2022-08-31T08:52:12.012Z,64.78
2022-08-31T08:54:44.077Z,64.63
2022-08-31T08:57:17.872Z,64.46
2022-08-31T09:00:10.379Z,64.64
2022-08-31T09:03:07.366Z,65.02
2022-08-31T09:05:56.886Z,64.76
2022-08-31T09:30:06.562Z,63.35
2022-08-31T09:32:50.335Z,63.38
2022-08-31T09:35:44.515Z,63.10
2022-08-31T09:38:58.683Z,63.38
2022-08-31T09:46:28.261Z,62.92
2022-08-31T10:05:46.587Z,61.47
2022-08-31T10:08:19.759Z,61.42
2022-08-31T10:10:51.512Z,61.23
2022-08-31T10:13:28.249Z,61.16
2022-08-31T10:16:09.017Z,61.34
2022-08-31T10:18:39.826Z,61.00
2022-08-31T10:21:14.616Z,61.25
2022-08-31T10:24:54.167Z,61.00
2022-08-31T10:48:28.193Z,58.39
2022-08-31T10:51:23.860Z,58.38
2022-08-31T12:54:16.183Z,53.49
2022-08-31T13:00:46.435Z,53.82
2022-08-31T13:03:53.991Z,53.46
2022-08-31T13:06:38.154Z,52.89
2022-08-31T13:10:02.160Z,53.76
2022-08-31T13:12:41.585Z,53.69
2022-08-31T15:30:24.750Z,47.82
2022-08-31T15:33:12.325Z,47.53
2022-08-31T15:35:55.106Z,47.48
2022-08-31T15:38:36.558Z,45.91
2022-08-31T15:53:10.982Z,45.83
2022-08-31T15:55:41.130Z,45.55
2022-08-31T16:02:19.344Z,45.13
2022-08-31T16:04:52.170Z,45.26
2022-08-31T16:07:32.707Z,45.42
2022-08-31T16:10:11.709Z,44.68
2022-08-31T16:12:49.339Z,44.97
2022-08-31T16:15:28.208Z,44.85
2022-08-31T16:18:20.727Z,44.10
2022-08-31T16:20:56.428Z,44.93
2022-08-31T16:24:37.531Z,43.81
2022-08-31T16:27:20.565Z,43.96
2022-08-31T16:30:02.025Z,43.98
2022-08-31T16:32:35.256Z,44.13
2022-08-31T16:35:06.700Z,44.47
2022-08-31T16:37:36.066Z,44.49
2022-08-31T16:40:19.858Z,44.30
2022-08-31T16:43:21.972Z,43.46
2022-08-31T16:46:10.496Z,43.24
2022-08-31T16:49:14.640Z,44.28
2022-08-31T16:55:25.078Z,45.75
2022-08-31T17:02:39.169Z,45.40
2022-08-31T17:08:52.936Z,45.88
2022-08-31T17:11:35.426Z,46.09
2022-08-31T17:14:06.459Z,46.15
2022-08-31T17:16:38.254Z,46.14
2022-08-31T17:19:10.727Z,46.74
2022-08-31T17:25:14.351Z,47.03
2022-08-31T17:27:41.677Z,46.95
2022-08-31T17:30:09.069Z,47.37
2022-08-31T17:32:39.346Z,47.14
2022-08-31T17:35:37.597Z,47.21
2022-08-31T17:45:20.370Z,47.34
2022-08-31T17:48:36.376Z,47.23
2022-08-31T17:51:39.856Z,47.55
2022-08-31T17:54:21.313Z,47.63
2022-08-31T17:57:08.523Z,47.69
2022-08-31T17:59:56.942Z,47.95
2022-08-31T18:02:40.671Z,48.15
2022-08-31T18:06:21.159Z,48.04
2022-08-31T18:09:01.703Z,48.46
2022-08-31T18:11:31.703Z,48.67
2022-08-31T18:14:01.098Z,48.85
2022-08-31T18:16:35.883Z,48.89
2022-08-31T18:19:30.235Z,48.75
2022-08-31T18:22:18.088Z,48.94
2022-08-31T18:24:46.453Z,48.86
2022-08-31T18:27:19.761Z,48.78
2022-08-31T18:30:16.305Z,48.71
2022-08-31T18:51:53.418Z,49.07
2022-08-31T18:57:08.523Z,49.25
2022-08-31T18:59:40.440Z,49.26
2022-08-31T19:02:11.880Z,49.45
2022-08-31T19:04:42.204Z,48.99
2022-08-31T19:07:21.838Z,49.17
2022-08-31T19:10:28.724Z,49.39
2022-08-31T19:13:18.892Z,49.33
2022-08-31T19:15:49.381Z,49.29
2022-08-31T19:22:02.687Z,49.17
2022-08-31T19:24:37.192Z,48.61
2022-08-31T19:27:04.517Z,49.02
2022-08-31T19:29:31.900Z,48.52
2022-08-31T19:32:01.028Z,48.36
2022-08-31T19:34:34.921Z,48.40
2022-08-31T19:37:03.148Z,48.06
2022-08-31T19:39:37.047Z,48.02
2022-08-31T19:42:07.595Z,47.74
2022-08-31T19:47:25.792Z,47.72
2022-08-31T19:50:02.102Z,47.75
2022-08-31T19:52:29.990Z,47.47
2022-08-31T19:55:00.212Z,47.56
2022-08-31T19:58:38.188Z,47.32
2022-08-31T20:01:00.521Z,47.35
2022-08-31T20:03:32.232Z,47.77
2022-08-31T20:06:14.969Z,47.66
2022-08-31T20:08:46.363Z,47.54
2022-08-31T20:11:21.716Z,47.43
2022-08-31T20:13:52.852Z,47.25
2022-08-31T20:16:33.806Z,47.05
2022-08-31T20:19:25.259Z,46.66
2022-08-31T20:22:11.063Z,47.11
2022-08-31T20:24:48.120Z,46.73
2022-08-31T20:27:24.016Z,46.63
2022-08-31T20:29:51.621Z,46.65
2022-08-31T20:32:20.744Z,47.55
2022-08-31T20:34:49.864Z,46.43
2022-08-31T20:37:16.988Z,46.48
2022-08-31T20:39:43.976Z,46.66
2022-08-31T20:42:10.979Z,46.55
2022-08-31T20:44:38.335Z,46.56
2022-08-31T20:47:26.927Z,46.51
2022-08-31T20:49:58.665Z,46.72
2022-08-31T20:52:47.195Z,46.69
2022-08-31T20:55:19.366Z,46.78
2022-08-31T20:57:46.925Z,46.78
2022-08-31T21:00:15.960Z,46.99
2022-08-31T21:02:43.876Z,46.84
2022-08-31T21:05:37.932Z,47.10
2022-08-31T21:08:00.280Z,47.26
2022-08-31T21:10:37.893Z,46.64
2022-08-31T21:13:11.398Z,46.81
2022-08-31T21:15:44.335Z,46.84
2022-08-31T21:18:14.760Z,47.02
2022-08-31T21:20:41.573Z,46.81
2022-08-31T21:23:10.517Z,47.02
2022-08-31T21:25:43.920Z,46.96
2022-08-31T21:28:14.217Z,47.03
2022-08-31T21:30:40.931Z,47.17
2022-08-31T21:33:07.808Z,46.91
2022-08-31T21:35:35.755Z,47.03
2022-08-31T21:38:03.356Z,47.02
2022-08-31T21:40:31.179Z,47.12
2022-08-31T21:42:59.444Z,47.36
2022-08-31T21:45:26.698Z,47.33
2022-08-31T21:47:53.822Z,47.41
2022-08-31T21:50:20.985Z,47.28
2022-08-31T21:52:47.896Z,47.22
2022-08-31T21:55:18.351Z,47.26
2022-08-31T21:57:45.905Z,47.50
2022-08-31T22:00:30.147Z,47.77
2022-08-31T22:02:58.366Z,47.98
2022-08-31T22:05:46.223Z,48.05
2022-08-31T22:08:13.019Z,48.27
2022-08-31T22:10:49.284Z,48.40
2022-08-31T22:13:21.573Z,48.49
2022-08-31T22:15:48.420Z,48.61
2022-08-31T22:21:16.303Z,49.48
2022-08-31T22:23:52.615Z,49.07
2022-08-31T22:26:22.556Z,49.11
2022-08-31T22:28:52.530Z,49.09
2022-08-31T22:31:23.883Z,49.21
2022-08-31T22:33:57.841Z,49.35
2022-08-31T22:36:43.381Z,49.35
2022-08-31T22:39:13.532Z,49.36
2022-08-31T22:41:41.428Z,49.41
2022-08-31T22:44:13.831Z,49.46
2022-08-31T22:46:40.744Z,49.82
2022-08-31T22:49:10.759Z,50.15
2022-08-31T22:51:40.276Z,50.02
2022-08-31T22:54:08.470Z,49.62
2022-08-31T22:56:38.693Z,50.33
2022-08-31T22:59:11.748Z,50.51
2022-08-31T23:01:43.146Z,50.31
2022-08-31T23:04:14.623Z,50.13
2022-08-31T23:06:44.087Z,50.46
2022-08-31T23:09:11.744Z,50.85
2022-08-31T23:11:41.914Z,50.65
2022-08-31T23:14:10.330Z,50.48
2022-08-31T23:16:39.611Z,50.53
2022-08-31T23:19:15.791Z,50.72
2022-08-31T23:21:45.971Z,50.63
2022-08-31T23:24:16.854Z,50.53
2022-08-31T23:26:45.350Z,50.75
2022-08-31T23:29:18.069Z,50.79
2022-08-31T23:31:46.935Z,51.39
2022-08-31T23:34:15.917Z,51.36
2022-08-31T23:36:46.223Z,51.43
2022-08-31T23:39:13.425Z,51.46
2022-08-31T23:41:40.177Z,51.60
2022-08-31T23:44:09.252Z,51.85
2022-08-31T23:46:38.140Z,51.68
2022-08-31T23:49:07.959Z,52.07
2022-08-31T23:51:35.385Z,52.27
2022-08-31T23:54:09.246Z,52.38
2022-08-31T23:56:43.543Z,52.53
2022-08-31T23:59:19.648Z,52.58
